Time;durP1;ratioP1;P1;durP2;ratioP2;P2;SDS_P1;SDS_P2;PMS_P1;PMS_P2;Temp;Humidity;BMP_temperature;BMP_pressure;BME280_temperature;BME280_humidity;BME280_pressure;Samples;Min_cycle;Max_cycle;Signal;HPM_P1;HPM_P2
2021/07/13 00:00:40;;;;;;;15.53;14.00;;;21.70;99.90;;;;;;1888551;75;21053;-77
2021/07/13 00:03:09;;;;;;;14.70;13.20;;;21.70;99.90;;;;;;1893588;75;21057;-77
2021/07/13 00:05:38;;;;;;;15.10;13.60;;;21.70;99.90;;;;;;1895618;75;21171;-77
2021/07/13 00:08:06;;;;;;;14.60;13.18;;;21.70;99.90;;;;;;1866384;74;21194;-77
2021/07/13 00:10:37;;;;;;;17.67;13.88;;;21.70;99.90;;;;;;1863348;75;21120;-78
2021/07/13 00:13:05;;;;;;;15.10;13.68;;;21.70;99.90;;;;;;1887164;75;21164;-77
2021/07/13 00:15:36;;;;;;;15.43;13.80;;;21.60;99.90;;;;;;1893498;75;21170;-77
2021/07/13 00:18:04;;;;;;;14.78;13.20;;;21.60;99.90;;;;;;1870113;75;21108;-77
2021/07/13 00:20:33;;;;;;;16.00;14.38;;;21.60;99.90;;;;;;1870251;75;21211;-78
2021/07/13 00:23:01;;;;;;;15.83;14.00;;;21.60;99.90;;;;;;1862001;77;21043;-78
2021/07/13 00:25:30;;;;;;;16.40;14.33;;;21.60;99.90;;;;;;1856974;77;21103;-77
2021/07/13 00:27:58;;;;;;;16.55;14.85;;;21.40;99.90;;;;;;1868105;75;21148;-77
2021/07/13 00:30:26;;;;;;;14.78;13.48;;;21.40;99.90;;;;;;1890105;75;21190;-77
2021/07/13 00:32:53;;;;;;;16.12;14.18;;;21.30;99.90;;;;;;1886469;75;21535;-77
2021/07/13 00:35:21;;;;;;;16.67;14.07;;;21.40;99.90;;;;;;1863679;77;21112;-78
2021/07/13 00:37:49;;;;;;;15.72;14.10;;;21.40;99.90;;;;;;1861950;75;21207;-76
2021/07/13 00:40:19;;;;;;;16.17;14.53;;;21.40;99.90;;;;;;1862593;76;21641;-78
2021/07/13 00:42:49;;;;;;;16.32;14.63;;;21.40;99.90;;;;;;1891842;75;21116;-78
2021/07/13 00:45:17;;;;;;;19.60;13.98;;;21.50;99.90;;;;;;1888332;75;22107;-79
2021/07/13 00:47:50;;;;;;;15.95;14.43;;;21.40;99.90;;;;;;1871041;75;21210;-78
2021/07/13 00:50:20;;;;;;;16.15;14.15;;;21.50;99.90;;;;;;1892139;75;21101;-79
2021/07/13 00:52:48;;;;;;;17.12;13.78;;;21.40;99.90;;;;;;1871872;75;21113;-78
2021/07/13 00:55:16;;;;;;;15.98;14.55;;;21.40;99.90;;;;;;1858208;77;21513;-79
2021/07/13 00:57:44;;;;;;;18.80;13.93;;;21.40;99.90;;;;;;1881879;74;21122;-79
2021/07/13 01:00:17;;;;;;;16.77;14.55;;;21.40;99.90;;;;;;1883453;75;21115;-78
2021/07/13 01:02:47;;;;;;;16.05;14.20;;;21.40;99.90;;;;;;1891788;75;21061;-77
2021/07/13 01:05:17;;;;;;;16.20;14.58;;;21.40;99.90;;;;;;1894186;75;21120;-79
2021/07/13 01:08:06;;;;;;;17.02;14.90;;;21.40;99.90;;;;;;1870319;75;21570;-77
2021/07/13 01:10:42;;;;;;;15.78;13.75;;;21.40;99.90;;;;;;1866225;75;21053;-77
2021/07/13 01:13:35;;;;;;;14.75;13.38;;;21.50;99.90;;;;;;1833758;75;21068;-77
2021/07/13 01:16:27;;;;;;;15.13;13.72;;;21.40;99.90;;;;;;1826201;75;21104;-78
2021/07/13 01:19:15;;;;;;;15.77;14.23;;;21.40;99.90;;;;;;1845688;75;21838;-78
2021/07/13 01:21:48;;;;;;;15.80;13.68;;;21.40;99.90;;;;;;1889626;75;21637;-76
2021/07/13 01:24:30;;;;;;;17.42;13.62;;;21.20;99.90;;;;;;1863647;75;21203;-76
2021/07/13 01:27:04;;;;;;;;;;;21.10;99.90;;;;;;1863185;75;21037;-76
2021/07/13 01:29:33;;;;;;;16.15;14.60;;;21.10;99.90;;;;;;1888155;74;20409;-76
2021/07/13 01:32:03;;;;;;;16.07;14.30;;;21.20;99.90;;;;;;1892906;75;21041;-76
2021/07/13 01:34:37;;;;;;;19.07;14.93;;;21.20;99.90;;;;;;1863074;77;21092;-76
2021/07/13 01:37:06;;;;;;;16.05;14.55;;;21.20;99.90;;;;;;1885093;75;21536;-76
2021/07/13 01:39:35;;;;;;;17.77;14.58;;;21.20;99.90;;;;;;1895330;74;21750;-76
2021/07/13 01:42:06;;;;;;;15.32;13.83;;;21.20;99.90;;;;;;1870558;75;21067;-76
2021/07/13 01:44:34;;;;;;;19.52;14.28;;;21.20;99.90;;;;;;1864226;75;21149;-76
2021/07/13 01:47:03;;;;;;;18.32;14.55;;;21.20;99.90;;;;;;1881216;75;21108;-76
2021/07/13 01:49:31;;;;;;;17.17;14.53;;;21.20;99.90;;;;;;1871811;75;21108;-76
2021/07/13 01:52:00;;;;;;;16.73;15.13;;;21.20;99.90;;;;;;1887507;75;21174;-77
2021/07/13 01:54:30;;;;;;;21.42;14.33;;;21.10;99.90;;;;;;1856818;75;21104;-76
2021/07/13 01:56:59;;;;;;;15.90;14.28;;;21.20;99.90;;;;;;1856663;77;21091;-76
2021/07/13 01:59:29;;;;;;;17.55;14.55;;;21.10;99.90;;;;;;1861813;75;21144;-76
2021/07/13 02:01:59;;;;;;;29.77;14.83;;;21.10;99.90;;;;;;1862278;75;21111;-76
2021/07/13 02:04:29;;;;;;;15.90;14.25;;;21.10;99.90;;;;;;1856568;77;21190;-76
2021/07/13 02:06:59;;;;;;;20.88;14.93;;;21.10;99.90;;;;;;1871070;75;21078;-79
2021/07/13 02:09:28;;;;;;;19.10;15.53;;;21.10;99.90;;;;;;1870496;75;21070;-77
2021/07/13 02:11:57;;;;;;;17.48;14.87;;;21.10;99.90;;;;;;1872473;75;21088;-77
2021/07/13 02:14:25;;;;;;;17.25;15.55;;;21.20;99.90;;;;;;1863768;77;21181;-78
2021/07/13 02:16:53;;;;;;;18.10;15.00;;;21.10;99.90;;;;;;1867033;75;21555;-77
2021/07/13 02:19:21;;;;;;;17.45;15.15;;;21.10;99.90;;;;;;1887698;74;21494;-77
2021/07/13 02:21:50;;;;;;;16.30;14.70;;;21.10;99.90;;;;;;1893411;75;21105;-76
2021/07/13 02:24:17;;;;;;;18.90;15.10;;;21.00;99.90;;;;;;1865926;75;21102;-77
2021/07/13 02:26:54;;;;;;;17.95;14.50;;;21.00;99.90;;;;;;1857462;77;21145;-77
2021/07/13 02:29:33;;;;;;;18.10;15.30;;;21.00;99.90;;;;;;1859786;76;21602;-77
2021/07/13 02:32:03;;;;;;;19.90;15.35;;;21.10;99.90;;;;;;1862613;75;21104;-78
2021/07/13 02:34:34;;;;;;;17.07;15.35;;;21.10;99.90;;;;;;1859525;76;21077;-78
2021/07/13 02:37:03;;;;;;;21.73;15.80;;;21.10;99.90;;;;;;1865528;75;21116;-77
2021/07/13 02:39:34;;;;;;;16.30;14.75;;;21.10;99.90;;;;;;1882829;74;21108;-77
2021/07/13 02:42:03;;;;;;;18.42;15.13;;;21.10;99.90;;;;;;1866988;75;21157;-77
2021/07/13 02:44:33;;;;;;;17.65;15.78;;;21.00;99.90;;;;;;1895615;75;21093;-77
2021/07/13 02:47:09;;;;;;;16.55;14.70;;;21.00;99.90;;;;;;1869186;75;21101;-77
2021/07/13 02:49:47;;;;;;;20.97;14.83;;;21.10;99.90;;;;;;1895747;74;21078;-78
2021/07/13 02:52:20;;;;;;;16.52;14.15;;;21.10;99.90;;;;;;1886641;75;21115;-78
2021/07/13 02:54:50;;;;;;;15.03;13.35;;;21.00;99.90;;;;;;1870480;75;21516;-77
2021/07/13 02:57:18;;;;;;;15.32;13.72;;;21.00;99.90;;;;;;1857573;76;21051;-78
2021/07/13 02:59:47;;;;;;;18.70;14.30;;;20.90;99.90;;;;;;1869183;75;21066;-77
2021/07/13 03:02:16;;;;;;;19.57;15.08;;;20.90;99.90;;;;;;1845314;71;21231;-69
2021/07/13 03:04:43;;;;;;;18.55;14.20;;;20.90;99.90;;;;;;1766450;80;21077;-70
2021/07/13 03:07:12;;;;;;;16.00;14.50;;;20.90;99.90;;;;;;1837869;78;21070;-69
2021/07/13 03:09:40;;;;;;;16.57;14.98;;;20.70;99.90;;;;;;1836553;78;21191;-69
2021/07/13 03:12:09;;;;;;;16.40;14.78;;;20.80;99.90;;;;;;1823277;78;21222;-70
2021/07/13 03:14:45;;;;;;;18.60;15.15;;;20.80;99.90;;;;;;1827639;77;21149;-70
2021/07/13 03:17:17;;;;;;;18.75;16.12;;;20.80;99.90;;;;;;1830667;77;21155;-73
2021/07/13 03:19:47;;;;;;;;;;;20.80;99.90;;;;;;1828237;78;21094;-70
2021/07/13 03:22:20;;;;;;;18.50;15.35;;;20.90;99.90;;;;;;1825421;77;20195;-70
2021/07/13 03:24:49;;;;;;;22.25;16.37;;;20.80;99.90;;;;;;1851004;75;21104;-70
2021/07/13 03:27:19;;;;;;;18.62;16.67;;;20.90;99.90;;;;;;1826374;77;21587;-70
2021/07/13 03:29:48;;;;;;;18.00;14.80;;;20.90;99.90;;;;;;1830742;77;21105;-69
2021/07/13 03:32:17;;;;;;;18.00;16.17;;;20.90;99.90;;;;;;1825972;77;21157;-70
2021/07/13 03:34:46;;;;;;;17.00;15.40;;;20.90;99.90;;;;;;1823193;77;21103;-70
2021/07/13 03:37:15;;;;;;;19.77;16.70;;;20.90;99.90;;;;;;1842457;77;21093;-70
2021/07/13 03:39:44;;;;;;;19.62;15.72;;;20.80;99.90;;;;;;1845553;77;21038;-70
2021/07/13 03:42:12;;;;;;;16.27;14.58;;;20.80;99.90;;;;;;1835234;77;21237;-70
2021/07/13 03:44:41;;;;;;;17.98;16.07;;;20.80;99.90;;;;;;1832646;77;21092;-70
2021/07/13 03:47:13;;;;;;;17.55;15.75;;;20.80;99.90;;;;;;1835366;77;21570;-72
2021/07/13 03:49:42;;;;;;;17.23;15.40;;;20.80;99.90;;;;;;1823727;78;21090;-70
2021/07/13 03:52:12;;;;;;;17.70;15.85;;;20.90;99.90;;;;;;1831700;77;21135;-69
2021/07/13 03:54:40;;;;;;;16.77;15.08;;;20.90;99.90;;;;;;1856969;77;21160;-69
2021/07/13 03:57:08;;;;;;;16.65;14.90;;;20.90;99.90;;;;;;1829403;77;21563;-69
2021/07/13 03:59:36;;;;;;;16.48;14.75;;;20.80;99.90;;;;;;1826180;77;21106;-70
2021/07/13 04:02:04;;;;;;;16.73;14.87;;;20.70;99.90;;;;;;1839453;77;21141;-69
2021/07/13 04:04:31;;;;;;;18.35;15.25;;;20.60;99.90;;;;;;1834068;77;21599;-68
2021/07/13 04:06:59;;;;;;;17.90;15.80;;;20.60;99.90;;;;;;1823337;77;21032;-70
2021/07/13 04:09:26;;;;;;;18.23;16.20;;;20.50;99.90;;;;;;1818147;77;21075;-71
2021/07/13 04:11:54;;;;;;;17.42;15.72;;;20.60;99.90;;;;;;1818156;77;21572;-70
2021/07/13 04:14:21;;;;;;;16.97;15.18;;;20.60;99.90;;;;;;1822214;77;21078;-69
2021/07/13 04:16:49;;;;;;;17.60;15.75;;;20.60;99.90;;;;;;1814740;77;21176;-71
2021/07/13 04:19:16;;;;;;;20.25;16.90;;;20.60;99.90;;;;;;1817554;77;21161;-71
2021/07/13 04:21:44;;;;;;;21.85;15.93;;;20.60;99.90;;;;;;1814639;77;22203;-69
2021/07/13 04:24:11;;;;;;;19.05;15.90;;;20.60;99.90;;;;;;1828563;77;21050;-69
2021/07/13 04:26:39;;;;;;;21.17;16.25;;;20.70;99.90;;;;;;1808981;77;21106;-71
2021/07/13 04:29:07;;;;;;;16.62;14.93;;;20.80;99.90;;;;;;1811776;77;21572;-70
2021/07/13 04:31:34;;;;;;;17.70;15.25;;;20.90;99.90;;;;;;1818340;77;21663;-70
2021/07/13 04:34:08;;;;;;;17.55;15.53;;;20.90;99.90;;;;;;1820307;77;21192;-70
2021/07/13 04:36:31;;;;;;;19.17;17.30;;;20.80;99.90;;;;;;1828169;77;21129;-70
2021/07/13 04:38:59;;;;;;;18.90;16.87;;;20.90;99.90;;;;;;1815450;77;21099;-72
2021/07/13 04:41:26;;;;;;;21.57;17.25;;;21.00;99.90;;;;;;1820678;77;21223;-71
2021/07/13 04:43:54;;;;;;;19.27;17.30;;;20.90;99.90;;;;;;1812146;77;21102;-70
2021/07/13 04:46:21;;;;;;;21.77;16.45;;;21.00;99.90;;;;;;1816798;77;21227;-71
2021/07/13 04:48:49;;;;;;;20.05;17.50;;;21.10;99.90;;;;;;1811873;78;21537;-70
2021/07/13 04:51:16;;;;;;;18.87;17.07;;;21.20;99.90;;;;;;1824246;77;21146;-72
2021/07/13 04:53:44;;;;;;;18.75;16.73;;;21.20;99.90;;;;;;1826839;77;21114;-71
2021/07/13 04:56:11;;;;;;;20.52;17.25;;;21.30;99.90;;;;;;1845770;77;21166;-72
2021/07/13 04:58:39;;;;;;;18.65;16.65;;;21.40;99.90;;;;;;1861316;77;21647;-70
2021/07/13 05:01:06;;;;;;;19.45;16.40;;;21.40;99.90;;;;;;1825614;77;21564;-72
2021/07/13 05:03:34;;;;;;;22.45;17.65;;;21.50;99.90;;;;;;1811637;79;21220;-72
2021/07/13 05:06:01;;;;;;;20.35;16.48;;;21.50;99.90;;;;;;1824188;77;21087;-71
2021/07/13 05:08:29;;;;;;;26.42;17.48;;;21.60;99.90;;;;;;1820180;77;21075;-71
2021/07/13 05:10:56;;;;;;;23.15;17.27;;;21.50;99.90;;;;;;1836160;77;21660;-70
2021/07/13 05:13:24;;;;;;;18.67;16.73;;;21.40;99.90;;;;;;1838215;77;21063;-71
2021/07/13 05:15:51;;;;;;;18.23;16.42;;;21.50;99.90;;;;;;1820016;77;21074;-71
2021/07/13 05:18:19;;;;;;;17.98;15.78;;;21.50;99.90;;;;;;1829465;78;21535;-71
2021/07/13 05:20:48;;;;;;;18.90;16.45;;;21.50;99.90;;;;;;1838658;77;21142;-71
2021/07/13 05:23:16;;;;;;;20.02;17.20;;;21.50;99.90;;;;;;1819557;77;22172;-70
2021/07/13 05:25:44;;;;;;;20.88;16.30;;;21.50;99.90;;;;;;1846329;77;21061;-70
2021/07/13 05:28:12;;;;;;;29.85;17.82;;;21.50;99.90;;;;;;1822364;77;21152;-70
2021/07/13 05:30:41;;;;;;;19.07;17.02;;;21.50;99.90;;;;;;1812935;77;21114;-70
2021/07/13 05:33:09;;;;;;;18.90;16.07;;;21.60;99.90;;;;;;1814427;77;21150;-67
2021/07/13 05:35:37;;;;;;;19.32;17.15;;;21.60;99.90;;;;;;1811831;77;21188;-68
2021/07/13 05:38:06;;;;;;;20.80;16.57;;;21.70;99.90;;;;;;1814048;77;21565;-69
2021/07/13 05:40:33;;;;;;;18.02;16.12;;;21.60;99.90;;;;;;1819626;77;21110;-69
2021/07/13 05:43:01;;;;;;;21.00;16.77;;;21.60;99.90;;;;;;1815257;77;21157;-69
2021/07/13 05:45:28;;;;;;;20.37;15.85;;;21.70;99.90;;;;;;1813200;77;21098;-68
2021/07/13 05:47:56;;;;;;;24.15;15.72;;;21.70;99.90;;;;;;1820118;77;21066;-71
2021/07/13 05:50:23;;;;;;;16.77;15.18;;;21.80;99.90;;;;;;1818828;77;21098;-68
2021/07/13 05:52:52;;;;;;;21.25;16.48;;;21.90;99.90;;;;;;1815053;78;21244;-69
2021/07/13 05:55:20;;;;;;;19.87;15.05;;;21.90;99.90;;;;;;1818523;77;21572;-69
2021/07/13 05:57:47;;;;;;;15.95;14.20;;;21.90;99.90;;;;;;1816886;77;21122;-69
2021/07/13 06:00:15;;;;;;;15.58;13.90;;;21.90;99.90;;;;;;1820109;77;21570;-68
2021/07/13 06:02:43;;;;;;;20.40;15.23;;;21.90;99.90;;;;;;1816913;77;22262;-72
2021/07/13 06:05:11;;;;;;;17.65;14.45;;;21.90;99.90;;;;;;1824007;77;21580;-68
2021/07/13 06:07:46;;;;;;;15.32;13.68;;;22.00;99.90;;;;;;1822735;77;21140;-68
2021/07/13 06:10:14;;;;;;;16.27;14.63;;;22.00;99.90;;;;;;1823576;77;21101;-69
2021/07/13 06:12:42;;;;;;;22.95;15.30;;;22.00;99.90;;;;;;1816053;77;21178;-69
2021/07/13 06:15:10;;;;;;;20.48;15.40;;;22.10;99.90;;;;;;1822703;77;21177;-67
2021/07/13 06:17:43;;;;;;;20.17;15.53;;;22.10;99.90;;;;;;1822650;77;21300;-68
2021/07/13 06:20:11;;;;;;;16.65;14.95;;;22.10;99.90;;;;;;1821738;77;21154;-69
2021/07/13 06:22:40;;;;;;;17.62;15.50;;;22.10;99.90;;;;;;1822859;77;21190;-73
2021/07/13 06:25:08;;;;;;;17.45;15.58;;;22.10;99.90;;;;;;1821546;77;21170;-73
2021/07/13 06:27:36;;;;;;;17.50;14.35;;;22.20;99.90;;;;;;1821160;77;21118;-73
2021/07/13 06:30:06;;;;;;;16.45;14.73;;;22.20;99.90;;;;;;1822589;77;21066;-70
2021/07/13 06:32:33;;;;;;;17.87;14.73;;;22.20;99.90;;;;;;1825693;77;21150;-71
2021/07/13 06:35:01;;;;;;;19.48;15.75;;;22.20;99.90;;;;;;1825302;77;21545;-72
2021/07/13 06:37:28;;;;;;;19.45;15.40;;;22.30;99.90;;;;;;1823400;77;21567;-73
2021/07/13 06:39:56;;;;;;;15.70;14.05;;;22.30;99.90;;;;;;1822699;77;21176;-73
2021/07/13 06:42:24;;;;;;;19.25;14.93;;;22.40;99.90;;;;;;1824045;77;21231;-72
2021/07/13 06:44:51;;;;;;;19.05;14.60;;;22.40;99.90;;;;;;1818817;77;21119;-73
2021/07/13 06:47:19;;;;;;;20.55;13.50;;;22.40;99.90;;;;;;1821609;77;21570;-72
2021/07/13 06:49:46;;;;;;;14.35;12.93;;;22.40;99.90;;;;;;1824383;77;21131;-70
2021/07/13 06:52:14;;;;;;;20.27;13.03;;;22.40;99.90;;;;;;1821642;77;21216;-70
2021/07/13 06:54:41;;;;;;;14.93;13.43;;;22.30;99.90;;;;;;1826519;77;21196;-70
2021/07/13 06:57:09;;;;;;;15.38;12.58;;;22.40;99.90;;;;;;1818944;77;21142;-70
2021/07/13 06:59:36;;;;;;;15.00;12.23;;;22.50;99.90;;;;;;1815346;77;21070;-73
2021/07/13 07:02:04;;;;;;;13.58;12.23;;;22.50;99.90;;;;;;1818284;77;21574;-74
2021/07/13 07:04:31;;;;;;;16.15;12.63;;;22.50;99.90;;;;;;1823471;77;21111;-73
2021/07/13 07:06:59;;;;;;;14.05;12.73;;;22.60;99.90;;;;;;1821948;77;21080;-74
2021/07/13 07:09:27;;;;;;;14.60;13.15;;;22.70;99.90;;;;;;1821460;77;21203;-75
2021/07/13 07:11:54;;;;;;;15.32;13.70;;;22.70;99.90;;;;;;1822396;77;21261;-76
2021/07/13 07:14:22;;;;;;;15.70;14.05;;;22.80;99.90;;;;;;1824437;77;21127;-75
2021/07/13 07:16:49;;;;;;;14.63;13.05;;;22.80;99.90;;;;;;1819995;77;21162;-75
2021/07/13 07:19:17;;;;;;;18.92;12.43;;;22.90;99.90;;;;;;1822437;77;21225;-75
2021/07/13 07:21:44;;;;;;;13.00;11.60;;;22.90;99.90;;;;;;1822238;77;21219;-75
2021/07/13 07:24:12;;;;;;;13.05;11.78;;;23.00;99.90;;;;;;1819909;77;21107;-75
2021/07/13 07:26:39;;;;;;;15.83;12.55;;;23.00;99.90;;;;;;1822763;77;21073;-76
2021/07/13 07:29:07;;;;;;;14.45;12.65;;;23.00;99.90;;;;;;1820043;77;21177;-75
2021/07/13 07:31:34;;;;;;;18.85;13.18;;;23.10;99.90;;;;;;1819449;77;21279;-75
2021/07/13 07:34:02;;;;;;;15.38;12.55;;;23.10;99.90;;;;;;1823097;77;21107;-75
2021/07/13 07:36:29;;;;;;;14.98;13.05;;;23.20;99.90;;;;;;1822144;77;21121;-75
2021/07/13 07:38:57;;;;;;;16.30;13.32;;;23.20;99.90;;;;;;1819355;77;21138;-75
2021/07/13 07:41:24;;;;;;;16.23;12.50;;;23.30;99.90;;;;;;1814463;77;21200;-75
2021/07/13 07:43:52;;;;;;;12.28;11.12;;;23.40;99.90;;;;;;1820158;77;21227;-77
2021/07/13 07:46:20;;;;;;;14.83;11.45;;;23.40;99.90;;;;;;1818190;77;21074;-77
2021/07/13 07:48:47;;;;;;;13.50;11.40;;;23.40;99.90;;;;;;1819432;77;21067;-76
2021/07/13 07:51:15;;;;;;;15.13;12.07;;;23.40;99.90;;;;;;1817589;77;21067;-76
2021/07/13 07:53:42;;;;;;;16.57;11.12;;;23.50;99.90;;;;;;1820507;77;21170;-75
2021/07/13 07:56:10;;;;;;;16.65;11.35;;;23.40;99.90;;;;;;1825495;77;21097;-75
2021/07/13 07:58:37;;;;;;;13.98;10.32;;;23.40;99.90;;;;;;1816421;77;21224;-76
2021/07/13 08:01:05;;;;;;;17.48;11.88;;;23.40;99.90;;;;;;1822781;77;21114;-77
2021/07/13 08:03:32;;;;;;;11.95;10.72;;;23.60;99.90;;;;;;1818821;77;21552;-75
2021/07/13 08:06:00;;;;;;;14.38;11.25;;;23.80;99.90;;;;;;1821913;77;21099;-74
2021/07/13 08:08:27;;;;;;;13.83;11.57;;;23.80;99.90;;;;;;1821910;77;21191;-76
2021/07/13 08:10:55;;;;;;;15.25;11.85;;;23.90;99.90;;;;;;1822901;77;21450;-77
2021/07/13 08:13:22;;;;;;;16.42;12.33;;;23.90;99.90;;;;;;1820902;77;21059;-76
2021/07/13 08:15:50;;;;;;;15.05;11.88;;;23.90;99.90;;;;;;1820985;77;21096;-76
2021/07/13 08:18:19;;;;;;;17.37;11.30;;;23.80;99.90;;;;;;1820633;77;21600;-76
2021/07/13 08:20:46;;;;;;;16.10;11.97;;;23.80;99.90;;;;;;1821354;77;21146;-76
2021/07/13 08:23:14;;;;;;;13.55;11.50;;;23.80;99.90;;;;;;1822893;77;21572;-76
2021/07/13 08:25:41;;;;;;;12.07;10.68;;;23.90;99.90;;;;;;1822991;77;21071;-76
2021/07/13 08:28:09;;;;;;;15.68;10.80;;;24.10;99.90;;;;;;1820370;77;21130;-75
2021/07/13 08:30:36;;;;;;;11.85;10.03;;;24.20;99.90;;;;;;1820980;77;21118;-75
2021/07/13 08:33:04;;;;;;;13.72;9.90;;;24.30;99.90;;;;;;1822658;77;21143;-75
2021/07/13 08:35:32;;;;;;;11.73;10.13;;;24.40;99.90;;;;;;1821555;77;21762;-75
2021/07/13 08:37:59;;;;;;;10.03;9.10;;;24.30;99.90;;;;;;1822302;77;21101;-75
2021/07/13 08:40:30;;;;;;;12.68;9.83;;;24.20;99.90;;;;;;1824621;77;21557;-75
2021/07/13 08:42:58;;;;;;;13.58;9.25;;;24.20;99.90;;;;;;1822873;77;21107;-75
2021/07/13 08:45:25;;;;;;;10.13;8.80;;;24.20;99.90;;;;;;1825984;77;21569;-72
2021/07/13 08:47:54;;;;;;;14.07;9.40;;;24.30;99.90;;;;;;1820743;77;21433;-75
2021/07/13 08:50:23;;;;;;;13.55;9.10;;;24.40;99.90;;;;;;1821355;77;21180;-75
2021/07/13 08:52:51;;;;;;;11.03;8.63;;;24.50;99.90;;;;;;1824109;77;21162;-75
2021/07/13 08:55:18;;;;;;;12.40;8.10;;;24.40;99.90;;;;;;1824398;77;21137;-74
2021/07/13 08:57:46;;;;;;;10.78;8.38;;;24.50;99.90;;;;;;1824154;77;21227;-75
2021/07/13 09:00:17;;;;;;;11.28;9.55;;;24.60;99.90;;;;;;1822497;77;21071;-72
2021/07/13 09:03:06;;;;;;;11.60;8.70;;;24.60;99.90;;;;;;1822676;77;21165;-75
2021/07/13 09:05:45;;;;;;;13.78;8.43;;;24.60;99.90;;;;;;1820874;77;21138;-73
2021/07/13 09:08:15;;;;;;;9.80;8.78;;;24.50;99.90;;;;;;1823783;77;21102;-74
2021/07/13 09:11:04;;;;;;;8.93;8.03;;;24.50;99.90;;;;;;1819487;77;21082;-73
2021/07/13 09:13:35;;;;;;;9.68;7.72;;;24.60;99.90;;;;;;1835123;72;21148;-76
2021/07/13 09:16:05;;;;;;;12.13;8.10;;;24.60;99.90;;;;;;1891922;74;21174;-78
2021/07/13 09:18:35;;;;;;;11.80;7.75;;;24.80;99.90;;;;;;1896591;74;21074;-76
2021/07/13 09:21:21;;;;;;;13.70;8.95;;;24.80;99.90;;;;;;1895133;74;21086;-76
2021/07/13 09:24:08;;;;;;;9.60;8.13;;;25.00;99.90;;;;;;1903116;73;21145;-75
2021/07/13 09:26:53;;;;;;;8.78;7.97;;;25.10;99.90;;;;;;1906918;74;21167;-76
2021/07/13 09:29:41;;;;;;;10.18;7.83;;;25.10;99.90;;;;;;1902922;73;21109;-74
2021/07/13 09:32:24;;;;;;;9.40;7.12;;;25.10;99.90;;;;;;1904240;73;21138;-74
2021/07/13 09:34:58;;;;;;;9.53;7.60;;;25.10;99.90;;;;;;1874317;74;21149;-75
2021/07/13 09:37:33;;;;;;;7.90;6.70;;;25.30;99.90;;;;;;1882414;74;21835;-74
2021/07/13 09:40:15;;;;;;;12.82;6.60;;;25.20;99.90;;;;;;1883960;75;21166;-74
2021/07/13 09:42:48;;;;;;;8.43;6.25;;;25.50;99.90;;;;;;1878242;75;21074;-74
2021/07/13 09:45:28;;;;;;;7.15;5.70;;;25.60;99.90;;;;;;1892120;74;21188;-72
2021/07/13 09:47:58;;;;;;;6.37;5.12;;;25.60;99.90;;;;;;1888217;75;21363;-76
2021/07/13 09:50:44;;;;;;;6.75;5.40;;;25.50;99.90;;;;;;1887473;74;21953;-76
2021/07/13 09:53:18;;;;;;;15.90;5.70;;;25.70;99.90;;;;;;1887447;74;21291;-77
2021/07/13 09:55:44;;;;;;;7.12;4.95;;;25.70;99.90;;;;;;1894202;74;21111;-76
2021/07/13 09:58:20;;;;;;;6.30;5.12;;;25.60;99.90;;;;;;1893961;74;21054;-75
2021/07/13 10:00:53;;;;;;;5.45;4.95;;;25.60;99.90;;;;;;1893855;74;21093;-74
2021/07/13 10:03:22;;;;;;;7.72;5.42;;;25.60;99.90;;;;;;1893372;74;21142;-74
2021/07/13 10:05:52;;;;;;;7.20;5.50;;;25.60;99.90;;;;;;1892279;74;21038;-74
2021/07/13 10:08:22;;;;;;;6.22;5.00;;;25.60;99.90;;;;;;1894825;74;21489;-74
2021/07/13 10:10:50;;;;;;;9.00;5.37;;;25.50;99.90;;;;;;1899325;74;21094;-74
2021/07/13 10:13:19;;;;;;;6.75;6.05;;;25.60;99.90;;;;;;1894351;74;21219;-74
2021/07/13 10:15:48;;;;;;;7.25;5.90;;;25.70;99.90;;;;;;1894779;74;21091;-73
2021/07/13 10:18:16;;;;;;;8.80;6.30;;;25.70;99.90;;;;;;1891741;74;21126;-74
2021/07/13 10:20:44;;;;;;;6.83;5.87;;;25.70;99.90;;;;;;1893213;74;21228;-73
2021/07/13 10:23:13;;;;;;;6.50;5.87;;;25.70;99.90;;;;;;1891852;74;21283;-73
2021/07/13 10:25:45;;;;;;;9.33;6.47;;;25.70;99.90;;;;;;1897454;74;21089;-73
2021/07/13 10:28:15;;;;;;;8.73;6.40;;;25.70;99.90;;;;;;1892133;74;21114;-76
2021/07/13 10:30:44;;;;;;;8.28;6.80;;;25.50;99.90;;;;;;1892863;74;21102;-73
2021/07/13 10:33:32;;;;;;;7.30;5.97;;;25.50;99.90;;;;;;1892014;74;21279;-73
2021/07/13 10:36:28;;;;;;;7.42;6.72;;;25.40;99.90;;;;;;1891949;74;21035;-74
2021/07/13 10:39:27;;;;;;;7.28;6.42;;;25.30;99.90;;;;;;1891573;74;21113;-74
2021/07/13 10:41:59;;;;;;;11.53;7.00;;;25.40;99.90;;;;;;1891856;74;21149;-75
2021/07/13 10:44:52;;;;;;;13.38;7.35;;;25.30;99.90;;;;;;1893958;74;21220;-74
2021/07/13 10:47:25;;;;;;;11.00;6.60;;;25.30;99.90;;;;;;1892065;74;21212;-75
2021/07/13 10:50:18;;;;;;;7.58;5.92;;;25.20;99.90;;;;;;1892155;74;21138;-75
2021/07/13 10:52:53;;;;;;;6.33;5.72;;;25.20;99.90;;;;;;1895078;74;21093;-75
2021/07/13 10:55:35;;;;;;;6.75;6.15;;;25.10;99.90;;;;;;1899175;74;21376;-74
2021/07/13 10:58:14;;;;;;;7.47;5.85;;;25.10;99.90;;;;;;1892347;74;21165;-75
2021/07/13 11:00:56;;;;;;;8.28;6.20;;;25.20;99.90;;;;;;1895459;74;21224;-73
2021/07/13 11:03:36;;;;;;;8.10;6.08;;;25.20;99.90;;;;;;1893809;75;21828;-77
2021/07/13 11:06:09;;;;;;;6.30;5.70;;;25.20;99.90;;;;;;1892705;74;21105;-78
2021/07/13 11:08:50;;;;;;;6.62;6.00;;;25.30;99.90;;;;;;1895117;74;22509;-76
2021/07/13 11:11:23;;;;;;;8.58;6.90;;;25.20;99.90;;;;;;1892444;74;21500;-79
2021/07/13 11:13:57;;;;;;;8.98;6.10;;;25.30;99.90;;;;;;1895599;74;21062;-77
2021/07/13 11:16:27;;;;;;;6.95;5.65;;;25.30;99.90;;;;;;1892894;74;21055;-76
2021/07/13 11:18:56;;;;;;;7.30;6.62;;;25.30;99.90;;;;;;1888317;74;21224;-76
2021/07/13 11:21:32;;;;;;;7.25;6.58;;;25.30;99.90;;;;;;1880257;74;21193;-76
2021/07/13 11:24:06;;;;;;;6.95;6.25;;;25.20;99.90;;;;;;1890345;74;21255;-76
2021/07/13 11:26:37;;;;;;;7.97;5.85;;;25.10;99.90;;;;;;1892058;74;21087;-76
2021/07/13 11:29:25;;;;;;;9.23;5.72;;;25.20;99.90;;;;;;1897201;74;21266;-72
2021/07/13 11:31:57;;;;;;;6.55;5.80;;;25.30;99.90;;;;;;1908516;73;21141;-73
2021/07/13 11:34:26;;;;;;;7.53;6.35;;;25.30;99.90;;;;;;1907125;73;21689;-73
2021/07/13 11:36:55;;;;;;;7.95;5.75;;;25.30;99.90;;;;;;1903356;73;21154;-69
2021/07/13 11:39:33;;;;;;;9.60;5.70;;;25.30;99.90;;;;;;1898980;73;21055;-69
2021/07/13 11:42:02;;;;;;;7.70;6.47;;;25.30;99.90;;;;;;1900124;73;21179;-68
2021/07/13 11:44:29;;;;;;;;;;;25.30;99.90;;;;;;1906041;73;21184;-68
2021/07/13 11:46:57;;;;;;;7.08;6.37;;;25.30;99.90;;;;;;1899766;73;20265;-68
2021/07/13 11:49:27;;;;;;;8.08;6.12;;;25.30;99.90;;;;;;1906719;73;21153;-68
2021/07/13 11:52:04;;;;;;;6.42;5.80;;;25.30;99.90;;;;;;1899296;73;21199;-69
2021/07/13 11:54:41;;;;;;;7.17;6.15;;;25.30;99.90;;;;;;1902652;73;21654;-73
2021/07/13 11:57:17;;;;;;;8.28;6.42;;;25.30;99.90;;;;;;1900405;73;21140;-73
2021/07/13 11:59:41;;;;;;;6.65;6.05;;;25.30;99.90;;;;;;1903577;73;21297;-72
2021/07/13 12:02:09;;;;;;;10.13;6.10;;;25.20;99.90;;;;;;1915679;73;21023;-72
2021/07/13 12:04:39;;;;;;;7.03;5.97;;;25.10;99.90;;;;;;1905730;73;21063;-72
2021/07/13 12:07:07;;;;;;;7.85;6.60;;;25.20;99.90;;;;;;1908349;74;21008;-72
2021/07/13 12:09:39;;;;;;;8.85;7.10;;;25.10;99.90;;;;;;1875030;74;21039;-72
2021/07/13 12:12:09;;;;;;;7.30;6.65;;;25.10;99.90;;;;;;1886962;74;21035;-72
2021/07/13 12:14:38;;;;;;;9.10;6.60;;;25.10;99.90;;;;;;1884504;74;21152;-72
2021/07/13 12:17:06;;;;;;;7.22;6.42;;;25.10;99.90;;;;;;1893800;74;21627;-72
2021/07/13 12:19:35;;;;;;;9.58;6.95;;;25.00;99.90;;;;;;1890116;74;21085;-72
2021/07/13 12:22:08;;;;;;;7.03;6.28;;;25.00;99.90;;;;;;1900761;74;21092;-73
2021/07/13 12:24:40;;;;;;;12.80;7.00;;;25.00;99.90;;;;;;1898129;74;21055;-72
2021/07/13 12:27:12;;;;;;;7.60;6.58;;;25.00;99.90;;;;;;1890555;74;21079;-72
2021/07/13 12:29:44;;;;;;;8.65;6.70;;;25.00;99.90;;;;;;1898420;74;21164;-72
2021/07/13 12:32:20;;;;;;;7.37;6.67;;;25.00;99.90;;;;;;1888690;74;21627;-71
2021/07/13 12:34:51;;;;;;;11.08;7.05;;;25.00;99.90;;;;;;1891326;74;21656;-72
2021/07/13 12:37:23;;;;;;;7.78;6.85;;;25.10;99.90;;;;;;1868994;76;21134;-72
2021/07/13 12:39:56;;;;;;;8.40;6.92;;;25.00;99.90;;;;;;1876091;75;21094;-73
2021/07/13 12:42:25;;;;;;;8.58;6.75;;;24.90;99.90;;;;;;1883318;74;21070;-73
2021/07/13 12:44:55;;;;;;;8.50;7.55;;;24.80;99.90;;;;;;1870132;74;21251;-73
2021/07/13 12:47:26;;;;;;;10.38;7.62;;;24.80;99.90;;;;;;1885279;74;21373;-73
2021/07/13 12:50:17;;;;;;;12.10;6.90;;;25.00;99.90;;;;;;1882845;74;21095;-72